Time;durP1;ratioP1;P1;durP2;ratioP2;P2;SDS_P1;SDS_P2;PMS_P1;PMS_P2;Temp;Humidity;BMP_temperature;BMP_pressure;BME280_temperature;BME280_humidity;BME280_pressure;Samples;Min_cycle;Max_cycle;Signal;HPM_P1;HPM_P2
2023/03/02 00:01:38;;;;;;;;;5.60;4.00;;;;;1.50;60.15;100636.78;5078277;28;8839;-59
2023/03/02 00:04:06;;;;;;;;;6.80;6.40;;;;;1.49;59.74;100642.94;5077738;28;8954;-59
2023/03/02 00:06:34;;;;;;;;;4.80;4.00;;;;;1.47;59.40;100634.25;5078520;28;8908;-59
2023/03/02 00:09:03;;;;;;;;;4.40;4.40;;;;;1.45;59.61;100643.09;5079831;28;8836;-61
2023/03/02 00:11:30;;;;;;;;;4.40;4.40;;;;;1.41;60.19;100641.44;5097896;28;8866;-61
2023/03/02 00:13:58;;;;;;;;;4.20;4.20;;;;;1.36;60.49;100643.38;5097229;28;8834;-60
2023/03/02 00:16:26;;;;;;;;;5.20;5.20;;;;;1.30;60.52;100641.78;5098181;28;8840;-59
2023/03/02 00:18:54;;;;;;;;;7.40;5.40;;;;;1.23;60.10;100634.16;5096287;28;8859;-60
2023/03/02 00:21:23;;;;;;;;;4.00;4.00;;;;;1.16;60.76;100632.63;5075791;28;8880;-59
2023/03/02 00:23:51;;;;;;;;;3.60;3.00;;;;;1.08;60.61;100638.09;5076431;28;9583;-59
2023/03/02 00:26:19;;;;;;;;;3.80;3.80;;;;;1.01;60.57;100631.31;5076468;28;8836;-60
2023/03/02 00:28:47;;;;;;;;;3.60;3.60;;;;;0.98;61.12;100626.19;5083666;28;8956;-59
2023/03/02 00:31:15;;;;;;;;;4.40;3.60;;;;;0.97;60.44;100618.34;5097119;28;8932;-59
2023/03/02 00:33:43;;;;;;;;;3.00;1.40;;;;;0.94;61.00;100621.97;5097626;28;8887;-61
2023/03/02 00:36:12;;;;;;;;;6.00;4.00;;;;;0.89;60.81;100617.72;5097021;28;8837;-61
2023/03/02 00:38:39;;;;;;;;;3.00;3.00;;;;;0.81;60.71;100619.72;5087275;28;8808;-61
2023/03/02 00:41:07;;;;;;;;;6.20;5.40;;;;;0.74;61.15;100619.06;5077368;28;8943;-61
2023/03/02 00:43:35;;;;;;;;;3.80;3.80;;;;;0.68;60.98;100611.38;5076782;28;8844;-60
2023/03/02 00:46:03;;;;;;;;;4.80;3.60;;;;;0.63;60.91;100605.38;5076173;28;8820;-58
2023/03/02 00:48:31;;;;;;;;;4.60;3.40;;;;;0.58;61.38;100598.56;5077255;28;8808;-60
2023/03/02 00:50:59;;;;;;;;;5.20;5.20;;;;;0.53;61.62;100605.72;5077322;28;8854;-59
2023/03/02 00:53:26;;;;;;;;;2.20;1.00;;;;;0.47;61.72;100608.50;5076957;28;8849;-61
2023/03/02 00:55:54;;;;;;;;;2.60;1.80;;;;;0.40;61.78;100613.03;5076975;28;8824;-58
2023/03/02 00:58:22;;;;;;;;;2.60;2.60;;;;;0.34;62.01;100613.25;5087676;28;8848;-57
2023/03/02 01:00:49;;;;;;;;;3.60;3.60;;;;;0.26;62.10;100612.59;5097405;28;8822;-59
2023/03/02 01:03:17;;;;;;;;;3.40;3.40;;;;;0.24;61.99;100630.09;5096973;28;8836;-59
2023/03/02 01:05:45;;;;;;;;;3.00;3.00;;;;;0.20;61.62;100620.63;5097374;28;8833;-59
2023/03/02 01:08:14;;;;;;;;;3.20;3.20;;;;;0.16;61.40;100634.66;5097143;28;8860;-60
2023/03/02 01:10:42;;;;;;;;;5.20;0.60;;;;;0.14;61.82;100630.38;5097309;28;8833;-59
2023/03/02 01:13:10;;;;;;;;;5.60;4.40;;;;;0.11;61.92;100630.47;5097282;28;8863;-59
2023/03/02 01:15:38;;;;;;;;;6.00;5.20;;;;;0.06;62.53;100627.97;5097336;28;8939;-60
2023/03/02 01:18:05;;;;;;;;;6.20;4.00;;;;;0.02;62.10;100626.31;5096667;28;8845;-61
2023/03/02 01:20:33;;;;;;;;;6.40;6.20;;;;;-0.03;62.05;100628.22;5096605;28;8837;-59
2023/03/02 01:23:01;;;;;;;;;3.00;3.00;;;;;-0.08;61.80;100627.47;5096605;28;8861;-59
2023/03/02 01:25:28;;;;;;;;;4.00;4.00;;;;;-0.12;62.19;100628.44;5096906;28;8918;-59
2023/03/02 01:27:57;;;;;;;;;4.40;4.40;;;;;-0.14;62.61;100624.16;5097115;28;8888;-58
2023/03/02 01:30:24;;;;;;;;;5.60;5.60;;;;;-0.14;62.33;100623.28;5096839;28;8837;-58
2023/03/02 01:32:52;;;;;;;;;1.00;1.00;;;;;-0.14;62.84;100618.94;5096807;28;8822;-60
2023/03/02 01:35:19;;;;;;;;;4.00;3.60;;;;;-0.05;62.22;100616.91;5095543;28;8891;-59
2023/03/02 01:37:47;;;;;;;;;3.00;3.00;;;;;0.03;61.37;100617.56;5096080;28;8841;-61
2023/03/02 01:40:15;;;;;;;;;3.40;3.00;;;;;0.08;62.49;100610.47;5096739;28;8832;-59
2023/03/02 01:45:42;;;;;;;;;4.00;3.60;;;;;0.17;61.56;100604.97;5068969;28;8820;-60
2023/03/02 01:48:09;;;;;;;;;5.60;5.60;;;;;0.24;61.33;100601.28;5076368;28;8812;-58
2023/03/02 01:50:38;;;;;;;;;3.60;1.40;;;;;0.29;61.79;100594.16;5076364;28;8846;-58
2023/03/02 01:53:05;;;;;;;;;4.40;3.60;;;;;0.30;61.80;100595.88;5076734;28;8824;-58
2023/03/02 01:55:33;;;;;;;;;3.00;3.00;;;;;0.28;62.00;100602.06;5093947;28;8806;-61
2023/03/02 01:58:01;;;;;;;;;3.00;3.00;;;;;0.22;61.32;100603.09;5096129;28;8846;-61
2023/03/02 02:00:28;;;;;;;;;3.60;3.00;;;;;0.14;61.94;100605.06;5096769;28;9480;-58
2023/03/02 02:03:07;;;;;;;;;4.40;4.40;;;;;0.09;62.17;100600.84;5096448;28;8830;-60
2023/03/02 02:05:35;;;;;;;;;3.60;2.20;;;;;0.06;62.23;100591.31;5095674;28;8829;-59
2023/03/02 02:08:02;;;;;;;;;6.00;4.00;;;;;0.05;61.80;100589.63;5095991;28;8833;-59
2023/03/02 02:10:30;;;;;;;;;5.40;3.60;;;;;0.06;62.56;100590.47;5096372;28;8872;-61
2023/03/02 02:12:58;;;;;;;;;0.00;0.00;;;;;0.04;62.50;100595.75;5096235;28;8859;-61
2023/03/02 02:15:26;;;;;;;;;6.60;6.00;;;;;0.05;62.54;100592.22;5095997;28;8824;-58
2023/03/02 02:17:54;;;;;;;;;3.00;3.00;;;;;0.04;62.21;100587.91;5095853;28;8826;-61
2023/03/02 02:20:22;;;;;;;;;3.00;2.60;;;;;0.02;62.30;100571.34;5095516;28;8849;-60
2023/03/02 02:22:50;;;;;;;;;3.80;1.00;;;;;0.02;62.23;100573.97;5095766;28;8834;-59
2023/03/02 02:25:18;;;;;;;;;7.20;6.00;;;;;0.04;61.69;100571.31;5095512;28;8818;-61
2023/03/02 02:27:46;;;;;;;;;3.20;3.20;;;;;0.06;62.43;100579.97;5095677;28;8865;-61
2023/03/02 02:30:14;;;;;;;;;5.40;5.20;;;;;0.07;62.01;100579.94;5095370;28;8840;-61
2023/03/02 02:32:42;;;;;;;;;4.80;4.00;;;;;0.06;61.84;100580.84;5095145;28;8852;-61
2023/03/02 02:35:09;;;;;;;;;1.00;1.00;;;;;0.06;62.28;100580.84;5095457;28;8868;-61
2023/03/02 02:37:37;;;;;;;;;3.60;2.80;;;;;0.06;62.52;100570.38;5095537;28;8826;-60
2023/03/02 02:40:06;;;;;;;;;9.80;6.40;;;;;0.10;62.59;100566.75;5095988;28;8861;-61
2023/03/02 02:42:34;;;;;;;;;4.20;3.60;;;;;0.15;62.09;100564.03;5095714;28;8838;-60
2023/03/02 02:45:01;;;;;;;;;3.80;3.00;;;;;0.17;62.20;100555.22;5095746;28;8825;-61
2023/03/02 02:47:29;;;;;;;;;4.00;4.00;;;;;0.18;61.85;100554.31;5095874;28;8829;-61
2023/03/02 02:49:57;;;;;;;;;9.00;6.20;;;;;0.20;62.31;100555.16;5096009;28;8825;-59
2023/03/02 02:52:25;;;;;;;;;4.40;3.40;;;;;0.21;62.27;100550.75;5095746;28;8837;-58
2023/03/02 02:54:54;;;;;;;;;1.80;1.80;;;;;0.22;61.96;100549.84;5095272;28;8830;-60
2023/03/02 02:57:23;;;;;;;;;0.00;0.00;;;;;0.25;62.72;100555.03;5096217;28;8837;-60
2023/03/02 02:59:51;;;;;;;;;6.60;6.20;;;;;0.25;62.45;100561.09;5099839;28;8840;-61
2023/03/02 03:02:19;;;;;;;;;3.20;3.20;;;;;0.26;62.02;100555.00;5099742;28;8817;-60
2023/03/02 03:04:47;;;;;;;;;4.80;4.80;;;;;0.25;62.36;100555.88;5099151;28;8810;-60
2023/03/02 03:07:14;;;;;;;;;2.80;1.80;;;;;0.24;62.47;100548.91;5099764;28;8840;-61
2023/03/02 03:09:42;;;;;;;;;2.60;2.60;;;;;0.27;62.13;100553.22;5099732;28;8818;-61
2023/03/02 03:12:10;;;;;;;;;3.00;3.00;;;;;0.29;62.23;100552.28;5099385;28;8830;-59
2023/03/02 03:14:38;;;;;;;;;3.00;3.00;;;;;0.31;62.18;100558.31;5099409;28;8805;-58
2023/03/02 03:17:11;;;;;;;;;3.60;3.20;;;;;0.32;62.37;100551.34;5099079;28;8857;-60
2023/03/02 03:19:39;;;;;;;;;6.00;6.00;;;;;0.31;62.58;100552.25;5099457;28;8861;-61
2023/03/02 03:22:06;;;;;;;;;4.60;3.60;;;;;0.31;62.51;100544.38;5099490;28;8833;-60
2023/03/02 03:24:34;;;;;;;;;1.00;1.00;;;;;0.31;62.40;100550.47;5099479;28;9513;-62
2023/03/02 03:27:04;;;;;;;;;4.40;2.20;;;;;0.28;62.62;100540.09;5099126;28;8906;-59
2023/03/02 03:29:32;;;;;;;;;3.00;3.00;;;;;0.29;62.97;100541.81;5099770;28;8919;-61
2023/03/02 03:31:59;;;;;;;;;6.60;4.00;;;;;0.27;62.79;100540.13;5099370;28;8829;-61
2023/03/02 03:34:27;;;;;;;;;1.00;1.00;;;;;0.26;62.64;100531.44;5098859;28;8840;-60
2023/03/02 03:37:00;;;;;;;;;4.80;3.60;;;;;0.25;62.23;100539.31;5099068;28;8841;-61
2023/03/02 03:39:28;;;;;;;;;6.00;5.20;;;;;0.24;62.78;100541.06;5098983;28;8840;-61
2023/03/02 03:41:56;;;;;;;;;5.80;5.60;;;;;0.25;62.48;100544.56;5099045;28;8836;-59
2023/03/02 03:44:23;;;;;;;;;4.40;3.00;;;;;0.25;62.64;100534.91;5098726;28;9523;-60
2023/03/02 03:46:51;;;;;;;;;3.60;3.60;;;;;0.26;62.23;100541.03;5098666;28;8845;-61
2023/03/02 03:49:19;;;;;;;;;6.60;6.00;;;;;0.27;62.38;100548.84;5098826;28;8818;-59
2023/03/02 03:51:47;;;;;;;;;1.00;1.00;;;;;0.28;62.80;100550.56;5098464;28;8861;-58
2023/03/02 03:54:14;;;;;;;;;3.60;1.80;;;;;0.27;62.95;100546.22;5098125;28;8821;-59
2023/03/02 03:56:43;;;;;;;;;0.60;0.60;;;;;0.26;62.33;100544.53;5098249;28;8847;-61
2023/03/02 03:59:12;;;;;;;;;4.80;4.80;;;;;0.25;62.85;100542.78;5098390;28;8835;-61
2023/03/02 04:01:40;;;;;;;;;3.80;3.80;;;;;0.22;62.83;100545.50;5098153;28;8818;-61
2023/03/02 04:04:08;;;;;;;;;4.40;3.40;;;;;0.23;62.73;100549.00;5095110;28;8840;-58
2023/03/02 04:06:36;;;;;;;;;3.80;3.00;;;;;0.22;62.61;100544.63;5077597;28;8954;-61
2023/03/02 04:09:04;;;;;;;;;3.80;3.20;;;;;0.21;62.54;100548.16;5076471;28;8876;-61
2023/03/02 04:11:32;;;;;;;;;1.80;1.80;;;;;0.19;62.19;100542.97;5077963;28;8840;-60
2023/03/02 04:13:59;;;;;;;;;3.80;3.20;;;;;0.19;62.68;100548.22;5079370;28;8816;-60
2023/03/02 04:16:27;;;;;;;;;3.40;1.80;;;;;0.17;62.67;100549.16;5098372;28;8833;-59
2023/03/02 04:18:55;;;;;;;;;4.40;3.20;;;;;0.14;62.76;100557.06;5098161;28;8826;-59
2023/03/02 04:21:23;;;;;;;;;1.40;0.60;;;;;0.11;62.60;100557.16;5098342;28;8853;-60
2023/03/02 04:23:50;;;;;;;;;3.00;3.00;;;;;0.11;63.01;100565.03;5097633;28;8826;-59
2023/03/02 04:26:18;;;;;;;;;4.00;3.40;;;;;0.12;62.76;100561.50;5057524;28;8830;-59
2023/03/02 04:28:49;;;;;;;;;3.80;3.80;;;;;0.13;63.02;100563.22;5058008;28;8850;-58
2023/03/02 04:31:17;;;;;;;;;3.00;3.00;;;;;0.10;62.97;100566.75;5057567;28;8822;-60
2023/03/02 04:33:45;;;;;;;;;4.00;3.60;;;;;0.08;63.30;100567.75;5056903;28;8826;-58
2023/03/02 04:36:12;;;;;;;;;3.00;3.00;;;;;0.03;63.23;100562.59;5095940;28;8814;-59
2023/03/02 04:38:40;;;;;;;;;2.60;1.00;;;;;0.00;63.37;100564.47;5097629;28;8818;-59
2023/03/02 04:41:08;;;;;;;;;2.20;1.40;;;;;-0.03;63.16;100561.91;5097587;28;8826;-59
2023/03/02 04:43:36;;;;;;;;;1.00;0.80;;;;;-0.05;63.54;100561.09;5097023;28;8844;-58
2023/03/02 04:46:04;;;;;;;;;3.20;3.00;;;;;-0.08;63.65;100567.28;5078718;28;8851;-59
2023/03/02 04:48:31;;;;;;;;;1.40;1.40;;;;;-0.12;63.19;100563.00;5076693;28;8836;-59
2023/03/02 04:50:59;;;;;;;;;3.60;3.00;;;;;-0.17;63.46;100565.81;5076653;28;8878;-60
2023/03/02 04:53:27;;;;;;;;;1.00;1.00;;;;;-0.21;62.97;100556.31;5076298;28;8852;-59
2023/03/02 04:55:55;;;;;;;;;3.20;3.20;;;;;-0.24;63.83;100556.41;5092425;28;8842;-58
2023/03/02 04:58:22;;;;;;;;;3.00;3.00;;;;;-0.23;63.65;100555.50;5096251;28;8845;-58
2023/03/02 05:00:50;;;;;;;;;3.80;3.80;;;;;-0.21;63.40;100551.97;5096830;28;8833;-60
2023/03/02 05:03:18;;;;;;;;;1.80;1.80;;;;;-0.17;63.63;100550.13;5096888;28;8849;-58
2023/03/02 05:05:46;;;;;;;;;3.20;3.00;;;;;-0.14;63.77;100547.41;5096626;28;8818;-61
2023/03/02 05:08:14;;;;;;;;;5.20;3.80;;;;;-0.13;63.67;100548.22;5096803;28;8844;-59
2023/03/02 05:10:42;;;;;;;;;4.00;3.00;;;;;-0.11;62.84;100545.56;5096019;28;8844;-61
2023/03/02 05:13:09;;;;;;;;;2.60;2.60;;;;;-0.11;63.21;100548.19;5096667;28;8846;-59
2023/03/02 05:15:37;;;;;;;;;1.80;1.80;;;;;-0.08;63.36;100545.47;5096312;28;8829;-61
2023/03/02 05:18:04;;;;;;;;;4.40;4.40;;;;;-0.07;63.12;100545.44;5096529;28;8836;-58
2023/03/02 05:20:33;;;;;;;;;2.60;2.60;;;;;-0.06;63.13;100544.53;5095942;28;8852;-59
2023/03/02 05:23:01;;;;;;;;;2.20;2.20;;;;;-0.06;63.19;100535.84;5095783;28;8837;-58
2023/03/02 05:25:29;;;;;;;;;4.00;3.00;;;;;-0.06;62.81;100539.31;5095823;28;8818;-58
2023/03/02 05:27:56;;;;;;;;;3.20;3.00;;;;;-0.07;63.23;100539.38;5096102;28;8850;-58
2023/03/02 05:30:24;;;;;;;;;4.40;3.80;;;;;-0.08;63.50;100538.50;5096390;28;8829;-59
2023/03/02 05:32:52;;;;;;;;;3.80;3.60;;;;;-0.08;62.94;100538.50;5096472;28;8959;-59
2023/03/02 05:35:20;;;;;;;;;3.60;1.40;;;;;-0.03;63.40;100537.53;5095179;28;8837;-58
2023/03/02 05:37:47;;;;;;;;;6.80;6.00;;;;;-0.02;63.23;100538.34;5095783;28;8929;-57
2023/03/02 05:40:15;;;;;;;;;3.40;3.20;;;;;0.00;63.26;100536.53;5095221;28;8837;-60
2023/03/02 05:42:43;;;;;;;;;4.00;4.00;;;;;0.02;63.03;100534.72;5095452;28;8879;-59
2023/03/02 05:45:11;;;;;;;;;4.00;3.80;;;;;0.05;63.74;100539.00;5095156;28;8829;-60
2023/03/02 05:47:40;;;;;;;;;3.20;3.20;;;;;0.08;63.03;100536.31;5095434;28;8813;-59
2023/03/02 05:50:07;;;;;;;;;6.00;6.00;;;;;0.07;63.57;100532.84;5095063;28;8841;-58
2023/03/02 05:52:35;;;;;;;;;3.60;3.60;;;;;0.07;63.02;100530.22;5094524;28;8837;-58
2023/03/02 05:55:03;;;;;;;;;5.20;2.80;;;;;0.07;63.23;100532.84;5094831;28;8818;-58
2023/03/02 05:57:31;;;;;;;;;4.00;4.00;;;;;0.08;63.25;100531.94;5094475;28;8830;-59
2023/03/02 05:59:58;;;;;;;;;1.00;1.00;;;;;0.09;63.24;100530.19;5094706;28;8857;-61
2023/03/02 06:02:26;;;;;;;;;6.80;6.40;;;;;0.08;63.09;100529.31;5095441;28;9767;-58
2023/03/02 06:04:54;;;;;;;;;3.80;3.80;;;;;0.09;63.80;100528.41;5094733;28;8805;-58
2023/03/02 06:07:22;;;;;;;;;5.60;5.60;;;;;0.09;63.10;100538.03;5095465;28;8829;-58
2023/03/02 06:09:50;;;;;;;;;4.00;4.00;;;;;0.09;63.29;100533.66;5095574;28;8829;-58
2023/03/02 06:12:18;;;;;;;;;3.80;3.20;;;;;0.06;63.47;100528.50;5094704;28;8833;-58
2023/03/02 06:14:46;;;;;;;;;4.00;4.00;;;;;0.05;62.93;100537.25;5094616;28;8829;-59
2023/03/02 06:17:14;;;;;;;;;3.60;3.00;;;;;0.04;63.12;100532.94;5093763;28;8824;-60
2023/03/02 06:19:42;;;;;;;;;4.00;4.00;;;;;0.06;63.69;100532.88;5093973;28;8825;-58
2023/03/02 06:22:10;;;;;;;;;4.80;4.40;;;;;0.07;63.45;100537.19;5094132;28;8857;-58
2023/03/02 06:24:37;;;;;;;;;3.40;3.40;;;;;0.07;62.91;100539.81;5094149;28;8841;-58
2023/03/02 06:27:05;;;;;;;;;5.20;4.00;;;;;0.08;63.10;100541.56;5094171;28;8837;-58
2023/03/02 06:29:33;;;;;;;;;3.60;3.40;;;;;0.07;62.97;100545.94;5093151;28;8987;-58
2023/03/02 06:32:01;;;;;;;;;3.40;3.20;;;;;0.06;63.12;100552.06;5093786;28;8837;-59
2023/03/02 06:34:29;;;;;;;;;3.00;0.20;;;;;0.05;63.46;100547.75;5093116;28;8840;-60
2023/03/02 06:36:57;;;;;;;;;3.20;3.00;;;;;0.06;63.17;100559.03;5092651;28;8833;-60
2023/03/02 06:39:24;;;;;;;;;1.80;1.80;;;;;0.05;63.21;100550.34;5092701;28;8853;-59
2023/03/02 06:41:52;;;;;;;;;3.60;3.60;;;;;0.04;63.32;100553.88;5092531;28;8844;-60
2023/03/02 06:44:20;;;;;;;;;1.00;0.20;;;;;0.09;63.51;100553.75;5091782;28;8867;-61
2023/03/02 06:46:48;;;;;;;;;2.20;2.20;;;;;0.12;63.19;100554.53;5091816;28;8871;-61
2023/03/02 06:49:16;;;;;;;;;2.20;2.20;;;;;0.13;62.48;100551.00;5091700;28;8837;-59
2023/03/02 06:51:44;;;;;;;;;3.00;3.00;;;;;0.16;63.13;100555.28;5091887;28;8855;-59
2023/03/02 06:54:12;;;;;;;;;5.20;5.20;;;;;0.21;62.91;100556.00;5091359;28;8856;-60
2023/03/02 06:56:40;;;;;;;;;0.80;0.80;;;;;0.23;62.92;100556.84;5090282;28;8840;-61
2023/03/02 06:59:08;;;;;;;;;3.00;3.00;;;;;0.25;62.68;100563.72;5091125;28;8861;-61
2023/03/02 07:01:36;;;;;;;;;3.60;3.20;;;;;0.27;63.09;100564.56;5090791;28;9000;-59
2023/03/02 07:04:03;;;;;;;;;3.00;3.00;;;;;0.27;62.84;100563.69;5091305;28;8822;-61
2023/03/02 07:06:31;;;;;;;;;5.60;5.20;;;;;0.29;62.66;100565.38;5089951;28;8850;-61
2023/03/02 07:08:59;;;;;;;;;4.80;3.40;;;;;0.29;63.26;100568.00;5092114;28;8826;-59
2023/03/02 07:11:27;;;;;;;;;3.00;3.00;;;;;0.31;63.02;100565.34;5092287;28;8830;-61
2023/03/02 07:13:55;;;;;;;;;3.20;3.20;;;;;0.30;62.93;100564.47;5091783;28;8826;-60
2023/03/02 07:16:23;;;;;;;;;4.40;4.40;;;;;0.30;62.57;100567.09;5092748;28;8834;-61
2023/03/02 07:18:51;;;;;;;;;4.00;4.00;;;;;0.31;62.95;100568.78;5092557;28;8838;-61
2023/03/02 07:21:19;;;;;;;;;3.80;3.80;;;;;0.34;62.77;100571.34;5092658;28;8842;-62
2023/03/02 07:23:46;;;;;;;;;1.00;1.00;;;;;0.38;62.71;100567.72;5092302;28;9520;-60
2023/03/02 07:26:14;;;;;;;;;0.20;0.20;;;;;0.42;62.64;100573.72;5091194;28;8826;-61
2023/03/02 07:28:43;;;;;;;;;4.80;4.00;;;;;0.47;62.90;100572.69;5092282;28;8881;-59
2023/03/02 07:31:11;;;;;;;;;0.60;0.60;;;;;0.57;62.45;100579.41;5092351;28;9632;-61
2023/03/02 07:33:38;;;;;;;;;4.00;4.00;;;;;0.72;62.49;100573.69;5092149;28;8826;-61
2023/03/02 07:36:06;;;;;;;;;3.20;3.20;;;;;0.87;61.99;100565.38;5092390;28;9523;-61
2023/03/02 07:38:35;;;;;;;;;4.00;4.00;;;;;1.06;61.79;100571.75;5093191;28;8968;-62
2023/03/02 07:41:03;;;;;;;;;5.20;5.20;;;;;1.29;61.32;100558.75;5093041;28;9535;-61
2023/03/02 07:43:34;;;;;;;;;5.20;4.40;;;;;1.53;60.99;100559.75;5093677;28;8830;-61
2023/03/02 07:46:02;;;;;;;;;4.80;4.00;;;;;1.78;60.70;100564.13;5097645;28;8842;-60
2023/03/02 07:48:31;;;;;;;;;2.20;2.20;;;;;1.92;60.86;100566.25;5096659;28;8873;-59
2023/03/02 07:50:58;;;;;;;;;4.40;3.80;;;;;1.98;60.41;100566.03;5096910;28;8833;-60
2023/03/02 07:53:26;;;;;;;;;1.00;1.00;;;;;2.02;60.65;100560.63;5095336;28;8834;-61
2023/03/02 07:55:54;;;;;;;;;4.00;4.00;;;;;2.18;60.44;100559.16;5095326;28;8834;-59
2023/03/02 07:58:23;;;;;;;;;4.80;4.80;;;;;2.50;59.63;100564.09;5096542;28;8946;-59
2023/03/02 08:00:50;;;;;;;;;6.80;6.20;;;;;2.83;59.28;100565.47;5094636;28;8845;-60
2023/03/02 08:03:18;;;;;;;;;3.60;3.20;;;;;3.12;59.34;100559.94;5094158;28;8829;-59
2023/03/02 08:05:46;;;;;;;;;5.20;5.20;;;;;3.34;59.42;100560.75;5094487;28;8935;-59
2023/03/02 08:08:14;;;;;;;;;6.00;4.80;;;;;3.49;59.16;100560.13;5094778;28;8971;-61
2023/03/02 08:10:42;;;;;;;;;7.00;4.40;;;;;3.65;58.36;100560.38;5094176;28;8848;-60
2023/03/02 08:13:10;;;;;;;;;7.20;6.20;;;;;3.78;58.49;100563.28;5093824;28;8841;-60
2023/03/02 08:15:38;;;;;;;;;3.00;3.00;;;;;4.00;58.23;100557.94;5094143;28;8833;-60
2023/03/02 08:18:06;;;;;;;;;4.80;4.00;;;;;4.23;57.74;100553.41;5094426;28;8877;-60
2023/03/02 08:20:34;;;;;;;;;5.80;5.80;;;;;4.46;57.92;100552.34;5094712;28;8832;-60
2023/03/02 08:23:03;;;;;;;;;5.80;5.80;;;;;4.60;57.47;100553.47;5095071;28;9548;-59
2023/03/02 08:25:31;;;;;;;;;6.20;5.20;;;;;4.66;57.39;100549.69;5095371;28;8833;-60
2023/03/02 08:27:59;;;;;;;;;4.00;2.60;;;;;4.64;57.63;100549.75;5095914;28;8849;-60
2023/03/02 08:30:27;;;;;;;;;3.60;3.60;;;;;4.63;57.55;100544.56;5096078;28;8872;-59
2023/03/02 08:32:55;;;;;;;;;5.20;5.20;;;;;4.59;57.08;100543.84;5096412;28;8849;-59
2023/03/02 08:35:22;;;;;;;;;3.60;3.00;;;;;4.55;57.76;100541.38;5095817;28;8852;-59
2023/03/02 08:37:50;;;;;;;;;5.60;4.40;;;;;4.53;57.36;100545.88;5095298;28;8844;-60
2023/03/02 08:40:18;;;;;;;;;4.80;4.40;;;;;4.59;56.76;100540.34;5095168;28;8837;-59
2023/03/02 08:42:47;;;;;;;;;9.00;9.00;;;;;4.71;56.58;100537.16;5093431;28;8934;-60
2023/03/02 08:45:15;;;;;;;;;6.60;6.60;;;;;4.91;56.61;100535.28;5093875;28;9522;-59
2023/03/02 08:47:43;;;;;;;;;6.80;6.60;;;;;5.14;56.33;100534.16;5094408;28;8840;-59
2023/03/02 08:50:11;;;;;;;;;6.00;4.00;;;;;5.26;55.91;100531.78;5094516;28;8929;-59
2023/03/02 08:52:42;;;;;;;;;8.60;8.00;;;;;5.41;55.56;100530.19;5094157;28;8981;-59
2023/03/02 08:55:10;;;;;;;;;6.40;4.40;;;;;5.64;55.56;100527.28;5094624;28;8848;-59
2023/03/02 08:57:40;;;;;;;;;3.80;3.80;;;;;5.99;55.07;100515.81;5095079;28;8928;-59
2023/03/02 09:00:13;;;;;;;;;8.60;7.00;;;;;6.43;54.56;100517.81;5093906;28;8849;-60
2023/03/02 09:02:41;;;;;;;;;8.60;6.00;;;;;6.81;53.34;100515.72;5095205;28;8910;-61
2023/03/02 09:05:09;;;;;;;;;6.40;6.00;;;;;7.04;52.78;100510.00;5094648;28;9412;-59
2023/03/02 09:07:37;;;;;;;;;7.00;6.80;;;;;7.06;52.79;100518.72;5094468;28;8834;-59
2023/03/02 09:10:04;;;;;;;;;6.00;4.00;;;;;6.97;52.78;100516.59;5094942;28;8841;-60
2023/03/02 09:12:33;;;;;;;;;4.80;4.00;;;;;6.83;53.14;100505.91;5094777;28;9211;-61
2023/03/02 09:15:00;;;;;;;;;4.40;4.00;;;;;6.71;53.10;100514.50;5094579;28;8834;-59
2023/03/02 09:17:29;;;;;;;;;7.80;6.40;;;;;6.55;53.03;100514.50;5094302;28;8830;-59
2023/03/02 09:19:59;;;;;;;;;7.00;6.40;;;;;6.44;53.03;100516.03;5092955;28;8898;-60
2023/03/02 09:22:27;;;;;;;;;7.00;6.80;;;;;6.36;53.03;100516.41;5091188;28;8833;-59
2023/03/02 09:24:55;;;;;;;;;9.40;8.80;;;;;6.41;52.98;100497.66;5091458;28;8814;-62
2023/03/02 09:27:23;;;;;;;;;7.40;7.40;;;;;6.53;52.82;100499.66;5091596;28;8873;-61
2023/03/02 09:29:52;;;;;;;;;6.00;6.00;;;;;6.57;52.80;100499.41;5091923;28;9655;-59
2023/03/02 09:32:20;;;;;;;;;6.00;5.20;;;;;6.52;52.33;100495.31;5092385;28;8834;-60
2023/03/02 09:34:48;;;;;;;;;8.20;7.00;;;;;6.46;52.39;100501.75;5093088;28;8822;-59
2023/03/02 09:37:16;;;;;;;;;9.60;8.60;;;;;6.39;52.52;100499.53;5094007;28;8904;-59
2023/03/02 09:39:44;;;;;;;;;4.40;4.00;;;;;6.35;52.10;100495.31;5092994;28;8842;-59
2023/03/02 09:42:12;;;;;;;;;6.80;5.60;;;;;6.35;52.21;100503.25;5092577;28;8837;-60
2023/03/02 09:44:40;;;;;;;;;4.00;4.00;;;;;6.34;51.93;100504.19;5092450;28;8830;-59
2023/03/02 09:47:08;;;;;;;;;7.00;6.00;;;;;6.32;51.83;100495.50;5091726;28;8822;-61
2023/03/02 09:49:36;;;;;;;;;7.40;4.40;;;;;6.32;52.37;100500.78;5093147;28;8853;-61
2023/03/02 09:52:04;;;;;;;;;6.60;5.60;;;;;6.34;52.20;100502.44;5092369;28;8854;-58
2023/03/02 09:54:32;;;;;;;;;6.00;6.00;;;;;6.40;51.93;100495.94;5092850;28;8837;-62
2023/03/02 09:57:00;;;;;;;;;9.00;6.40;;;;;6.48;51.89;100501.69;5093466;28;8826;-60
2023/03/02 09:59:28;;;;;;;;;3.00;3.00;;;;;6.57;51.37;100501.16;5092811;28;8837;-60
2023/03/02 10:02:00;;;;;;;;;6.20;6.20;;;;;6.67;51.42;100497.94;5090040;28;9542;-60
2023/03/02 10:04:27;;;;;;;;;7.00;7.00;;;;;6.79;50.95;100496.41;5091832;28;8852;-62
2023/03/02 10:06:56;;;;;;;;;4.00;4.00;;;;;6.88;50.78;100499.41;5092104;28;8853;-59
2023/03/02 10:09:25;;;;;;;;;7.80;7.00;;;;;7.07;50.83;100493.94;5091626;28;8853;-61
2023/03/02 10:11:53;;;;;;;;;5.80;5.60;;;;;7.29;50.47;100494.44;5092487;28;8857;-61
2023/03/02 10:14:22;;;;;;;;;10.20;7.40;;;;;7.51;49.88;100492.25;5093093;28;8955;-59
2023/03/02 10:16:50;;;;;;;;;7.40;7.40;;;;;7.76;49.67;100496.84;5092366;28;8966;-59
2023/03/02 10:19:18;;;;;;;;;7.00;6.20;;;;;8.33;48.82;100490.72;5092430;28;9019;-59
2023/03/02 10:21:46;;;;;;;;;7.80;7.80;;;;;9.17;46.83;100479.97;5092384;28;8979;-58
2023/03/02 10:24:14;;;;;;;;;10.00;9.20;;;;;10.12;46.32;100477.03;5093479;28;8951;-61
2023/03/02 10:26:42;;;;;;;;;6.50;6.25;;;;;11.13;44.93;100477.66;5093060;28;8844;-62
2023/03/02 10:29:10;;;;;;;;;10.00;9.00;;;;;12.08;43.55;100474.81;5092833;28;8841;-62
2023/03/02 10:31:38;;;;;;;;;8.00;8.00;;;;;12.92;43.07;100462.69;5091746;28;8937;-61
2023/03/02 10:34:06;;;;;;;;;5.00;5.00;;;;;13.65;42.02;100461.00;5092132;28;8864;-60
2023/03/02 10:36:34;;;;;;;;;6.75;6.00;;;;;14.23;41.84;100460.47;5091582;28;8947;-61
2023/03/02 10:39:02;;;;;;;;;8.75;8.50;;;;;14.73;41.17;100460.41;5091734;28;8856;-60
2023/03/02 10:41:31;;;;;;;;;9.50;6.75;;;;;15.29;40.86;100458.03;5091921;28;8856;-60
2023/03/02 10:43:59;;;;;;;;;9.50;9.00;;;;;15.71;40.50;100454.16;5091332;28;8844;-60
2023/03/02 10:46:27;;;;;;;;;6.75;5.50;;;;;16.08;40.01;100458.63;5091322;28;8864;-60
2023/03/02 10:48:56;;;;;;;;;6.75;6.75;;;;;16.26;39.56;100454.22;5091388;28;8867;-61
2023/03/02 10:51:24;;;;;;;;;11.00;10.00;;;;;16.35;39.24;100446.09;5091503;28;8859;-60
2023/03/02 10:53:52;;;;;;;;;7.50;7.50;;;;;16.62;38.72;100454.25;5092565;28;8869;-60
2023/03/02 10:56:21;;;;;;;;;11.00;9.50;;;;;17.02;38.73;100445.84;5092452;28;8919;-62
2023/03/02 10:58:49;;;;;;;;;7.00;6.00;;;;;17.43;38.62;100446.16;5092074;28;8842;-63
2023/03/02 11:01:17;;;;;;;;;8.25;8.00;;;;;17.75;37.84;100446.47;5092495;28;9549;-60
2023/03/02 11:03:45;;;;;;;;;13.00;11.50;;;;;18.01;37.85;100447.38;5091079;28;8848;-61
2023/03/02 11:06:13;;;;;;;;;7.50;7.00;;;;;18.27;37.17;100441.97;5091279;28;8834;-62
2023/03/02 11:08:41;;;;;;;;;9.50;9.25;;;;;18.29;37.32;100445.38;5092465;28;8826;-61
2023/03/02 11:11:09;;;;;;;;;10.00;9.00;;;;;18.17;37.96;100444.78;5092037;28;8838;-60
2023/03/02 11:13:37;;;;;;;;;9.00;9.00;;;;;18.08;37.73;100436.78;5091714;28;8822;-61
2023/03/02 11:16:06;;;;;;;;;11.50;10.00;;;;;17.99;37.29;100446.66;5092328;28;8844;-62
2023/03/02 11:18:33;;;;;;;;;9.20;9.20;;;;;17.96;37.28;100446.97;5091994;28;8865;-63
2023/03/02 11:21:02;;;;;;;;;6.60;6.60;;;;;17.88;37.44;100448.75;5096468;28;8834;-62
2023/03/02 11:23:31;;;;;;;;;11.00;10.50;;;;;17.69;37.87;100444.38;5096411;28;8853;-60
2023/03/02 11:25:59;;;;;;;;;13.50;12.00;;;;;17.76;37.54;100442.75;5096803;28;8830;-60
2023/03/02 11:28:27;;;;;;;;;9.60;9.60;;;;;17.88;37.24;100441.53;5096414;28;8967;-61
2023/03/02 11:30:55;;;;;;;;;8.00;6.50;;;;;17.98;37.26;100438.75;5095408;28;8853;-60
2023/03/02 11:33:23;;;;;;;;;4.00;4.00;;;;;18.11;37.02;100431.94;5095894;28;8842;-59
2023/03/02 11:35:51;;;;;;;;;12.40;9.40;;;;;18.22;36.36;100433.53;5095217;28;8842;-60
2023/03/02 11:38:20;;;;;;;;;7.40;7.40;;;;;18.22;36.44;100428.13;5094825;28;8826;-60
2023/03/02 11:40:48;;;;;;;;;9.80;9.00;;;;;18.19;35.72;100418.50;5095498;28;8934;-61
2023/03/02 11:43:16;;;;;;;;;7.80;7.80;;;;;18.13;35.75;100421.81;5095069;28;8960;-60
2023/03/02 11:45:44;;;;;;;;;9.50;8.50;;;;;18.28;35.81;100419.41;5094233;28;8842;-60